Time;durP1;ratioP1;P1;durP2;ratioP2;P2;SDS_P1;SDS_P2;PMS_P1;PMS_P2;Temp;Humidity;BMP_temperature;BMP_pressure;BME280_temperature;BME280_humidity;BME280_pressure;Samples;Min_cycle;Max_cycle;Signal;HPM_P1;HPM_P2
2022/01/06 00:02:02;;;;;;;19.75;4.00;;;;;;;3.73;86.91;101369.09;4879092;29;20092;-73
2022/01/06 00:04:28;;;;;;;21.25;3.85;;;;;;;3.70;87.16;101372.13;4881154;29;20045;-73
2022/01/06 00:06:53;;;;;;;20.30;4.10;;;;;;;3.69;86.88;101380.31;4863479;29;20425;-73
2022/01/06 00:09:20;;;;;;;18.80;4.88;;;;;;;3.66;87.27;101378.78;4880741;29;20041;-73
2022/01/06 00:11:45;;;;;;;18.02;4.18;;;;;;;3.64;87.05;101380.81;4881031;29;20480;-73
2022/01/06 00:24:49;;;;;;;22.23;4.45;;;;;;;3.53;87.05;101376.63;4881077;29;20087;-73
2022/01/06 00:27:14;;;;;;;18.60;3.65;;;;;;;3.52;87.31;101380.28;4880937;29;20060;-73
2022/01/06 00:29:40;;;;;;;19.10;4.00;;;;;;;3.54;87.26;101388.16;4880705;29;20492;-73
2022/01/06 00:32:06;;;;;;;18.23;4.40;;;;;;;3.52;87.72;101382.16;4876803;29;20041;-72
2022/01/06 00:34:31;;;;;;;21.42;4.10;;;;;;;3.50;86.86;101393.00;4861819;29;20037;-73
2022/01/06 00:36:56;;;;;;;18.02;4.10;;;;;;;3.43;86.86;101396.47;4879527;29;20032;-73
2022/01/06 00:39:27;;;;;;;18.13;3.60;;;;;;;3.43;87.23;101407.19;4880284;29;20036;-73
2022/01/06 00:41:55;;;;;;;21.50;3.85;;;;;;;3.41;87.66;101399.31;4880679;29;20057;-72
2022/01/06 00:44:20;;;;;;;15.90;3.75;;;;;;;3.39;87.18;101403.19;4863892;29;20039;-72
2022/01/06 00:46:46;;;;;;;20.88;4.00;;;;;;;3.35;87.27;101406.19;4880418;29;20080;-72
2022/01/06 00:49:11;;;;;;;18.90;4.30;;;;;;;3.39;87.20;101411.22;4863475;29;20045;-72
2022/01/06 00:51:36;;;;;;;19.98;4.28;;;;;;;3.39;86.77;101414.72;4876610;29;20030;-73
2022/01/06 00:54:01;;;;;;;24.15;4.35;;;;;;;3.37;86.78;101408.69;4861731;29;20033;-73
2022/01/06 00:56:27;;;;;;;23.15;4.95;;;;;;;3.35;86.76;101410.69;4861750;29;20056;-73
2022/01/06 00:58:52;;;;;;;24.40;4.35;;;;;;;3.31;87.07;101415.53;4861833;29;20029;-72
2022/01/06 01:01:17;;;;;;;17.80;3.90;;;;;;;3.30;87.23;101415.69;4859524;29;20057;-73
2022/01/06 01:03:43;;;;;;;12.90;3.42;;;;;;;3.25;86.88;101402.81;4861547;29;20522;-73
2022/01/06 01:06:08;;;;;;;18.45;4.15;;;;;;;3.25;87.27;101413.50;4876628;29;20041;-73
2022/01/06 01:08:34;;;;;;;20.08;3.80;;;;;;;3.25;86.62;101410.84;4879967;29;20037;-73
2022/01/06 01:10:59;;;;;;;19.92;5.00;;;;;;;3.21;86.46;101420.19;4863381;29;20043;-72
2022/01/06 01:13:29;;;;;;;17.02;3.65;;;;;;;3.19;86.86;101414.16;4879479;29;20141;-73
2022/01/06 01:16:00;;;;;;;20.73;3.60;;;;;;;3.19;87.05;101417.66;4860588;29;20394;-73
2022/01/06 01:18:25;;;;;;;15.57;4.82;;;;;;;3.17;86.61;101413.47;4861534;29;20053;-72
2022/01/06 01:20:52;;;;;;;17.30;3.78;;;;;;;3.17;86.68;101413.47;4875955;29;20028;-73
2022/01/06 01:23:20;;;;;;;16.23;3.70;;;;;;;3.10;86.78;101415.16;4880317;29;20036;-72
2022/01/06 01:25:46;;;;;;;15.90;3.58;;;;;;;3.09;86.61;101416.13;4879812;29;20060;-73
2022/01/06 01:28:11;;;;;;;19.35;4.28;;;;;;;3.00;86.20;101410.78;4879575;29;20120;-73
2022/01/06 01:30:51;;;;;;;14.48;3.38;;;;;;;3.02;86.31;101423.97;4879659;29;20029;-72
2022/01/06 01:33:17;;;;;;;16.05;3.55;;;;;;;2.97;86.94;101423.59;4879949;29;20033;-72
2022/01/06 01:35:42;;;;;;;17.67;3.70;;;;;;;2.98;86.86;101426.13;4879189;29;20069;-72
2022/01/06 01:38:07;;;;;;;14.95;3.38;;;;;;;2.98;86.39;101435.97;4878216;29;20065;-72
2022/01/06 01:40:33;;;;;;;19.85;3.50;;;;;;;2.99;87.07;101427.81;4879278;29;20449;-72
2022/01/06 01:42:58;;;;;;;17.75;3.97;;;;;;;2.94;86.71;101430.09;4878856;29;20072;-72
2022/01/06 01:45:28;;;;;;;20.48;3.67;;;;;;;2.96;86.69;101438.81;4879271;29;20140;-72
2022/01/06 01:47:54;;;;;;;17.20;3.70;;;;;;;2.98;86.52;101442.16;4879542;29;20033;-73
2022/01/06 01:50:21;;;;;;;19.35;3.53;;;;;;;2.99;86.81;101449.19;4879437;29;20048;-72
2022/01/06 01:52:52;;;;;;;17.02;3.80;;;;;;;2.99;86.61;101451.03;4879240;29;20394;-72
2022/01/06 01:55:22;;;;;;;20.35;3.50;;;;;;;2.98;86.37;101463.56;4879609;29;20041;-72
2022/01/06 01:57:49;;;;;;;18.80;3.55;;;;;;;2.92;86.42;101455.34;4878925;29;20065;-72
2022/01/06 02:00:16;;;;;;;20.55;4.43;;;;;;;2.92;86.68;101466.88;4877545;29;20375;-73
2022/01/06 02:02:42;;;;;;;16.17;3.70;;;;;;;2.94;86.34;101472.03;4876081;29;20048;-73
2022/01/06 02:05:08;;;;;;;25.40;4.60;;;;;;;2.94;86.31;101469.38;4879340;29;20057;-73
2022/01/06 02:07:35;;;;;;;20.17;3.97;;;;;;;2.91;86.68;101473.19;4862261;29;20033;-73
2022/01/06 02:10:03;;;;;;;20.27;3.97;;;;;;;2.90;86.83;101481.38;4879259;29;20101;-72
2022/01/06 02:12:32;;;;;;;18.90;3.67;;;;;;;2.87;86.67;101477.22;4879217;29;20057;-72
2022/01/06 02:14:58;;;;;;;22.95;4.13;;;;;;;2.83;86.77;101478.50;4878781;29;20418;-73
2022/01/06 02:17:23;;;;;;;16.17;3.63;;;;;;;2.85;86.92;101479.19;4878534;29;20088;-73
2022/01/06 02:19:54;;;;;;;19.88;3.75;;;;;;;2.83;86.91;101476.66;4861776;29;20076;-72
2022/01/06 02:22:19;;;;;;;16.50;3.85;;;;;;;2.84;86.55;101482.88;4864395;29;20379;-72
2022/01/06 02:24:44;;;;;;;16.08;3.28;;;;;;;2.82;86.37;101474.16;4859987;29;20029;-72
2022/01/06 02:27:10;;;;;;;13.45;3.15;;;;;;;2.77;86.53;101479.97;4860492;29;20089;-73
2022/01/06 02:29:35;;;;;;;14.13;3.15;;;;;;;2.73;86.23;101491.97;4860263;29;20036;-73
2022/01/06 02:32:07;;;;;;;19.08;3.70;;;;;;;2.75;86.80;101483.78;4865959;29;20048;-72
2022/01/06 02:34:32;;;;;;;21.77;4.25;;;;;;;2.76;86.27;101491.69;4878435;29;20040;-72
2022/01/06 02:36:57;;;;;;;15.55;3.60;;;;;;;2.79;86.42;101485.16;4878615;29;20045;-72
2022/01/06 02:39:23;;;;;;;21.58;3.78;;;;;;;2.75;86.79;101489.13;4878811;29;20033;-72
2022/01/06 02:41:48;;;;;;;22.13;4.25;;;;;;;2.77;87.14;101496.00;4878454;29;20037;-73
2022/01/06 02:44:13;;;;;;;18.55;3.75;;;;;;;2.72;86.72;101482.28;4877398;29;20489;-72
2022/01/06 02:46:40;;;;;;;19.20;3.30;;;;;;;2.69;86.56;101487.97;4878347;29;20037;-72
2022/01/06 02:49:05;;;;;;;19.05;3.88;;;;;;;2.66;86.76;101480.25;4878776;29;20521;-73
2022/01/06 02:51:30;;;;;;;23.25;3.70;;;;;;;2.59;86.41;101479.19;4861823;29;20119;-72
2022/01/06 02:53:56;;;;;;;14.82;3.28;;;;;;;2.58;86.58;101481.03;4861514;29;20033;-73
2022/01/06 02:56:21;;;;;;;27.13;4.22;;;;;;;2.53;86.62;101486.00;4878506;29;20382;-71
2022/01/06 02:58:46;;;;;;;22.83;3.63;;;;;;;2.55;86.79;101483.19;4878573;29;20025;-73
2022/01/06 03:01:11;;;;;;;26.20;3.85;;;;;;;2.55;86.70;101488.50;4875884;29;20037;-71
2022/01/06 03:03:37;;;;;;;22.27;4.00;;;;;;;2.56;86.37;101485.69;4878570;29;20037;-72
2022/01/06 03:06:02;;;;;;;22.92;4.53;;;;;;;2.54;86.45;101490.34;4869004;29;20050;-73
2022/01/06 03:08:27;;;;;;;24.38;4.10;;;;;;;2.51;86.66;101482.66;4860071;29;20029;-72
2022/01/06 03:10:54;;;;;;;20.05;4.32;;;;;;;2.54;86.34;101486.84;4859841;29;20040;-72
2022/01/06 03:13:19;;;;;;;28.98;3.97;;;;;;;2.55;86.08;101489.38;4860096;29;20037;-73
2022/01/06 03:15:44;;;;;;;14.07;3.65;;;;;;;2.54;85.98;101498.38;4859714;29;20040;-72
2022/01/06 03:18:10;;;;;;;24.02;4.18;;;;;;;2.51;85.82;101488.00;4878044;29;20085;-72
2022/01/06 03:20:35;;;;;;;21.98;3.90;;;;;;;2.57;86.01;101492.72;4878276;29;20056;-73
2022/01/06 03:23:00;;;;;;;14.13;3.60;;;;;;;2.48;85.87;101504.34;4878491;29;20089;-72
2022/01/06 03:25:26;;;;;;;17.80;3.70;;;;;;;2.51;86.34;101503.19;4878287;29;20044;-72
2022/01/06 03:27:51;;;;;;;16.77;3.10;;;;;;;2.46;86.13;101500.97;4876753;29;20101;-72
2022/01/06 03:30:20;;;;;;;19.45;3.88;;;;;;;2.49;86.29;101514.00;4879441;29;20108;-72
2022/01/06 03:32:45;;;;;;;26.10;4.10;;;;;;;2.47;86.34;101508.00;4881485;29;20037;-71
2022/01/06 03:35:13;;;;;;;22.38;4.05;;;;;;;2.47;85.84;101516.00;4881911;29;20397;-72
2022/01/06 03:37:40;;;;;;;22.38;3.90;;;;;;;2.49;85.96;101522.03;4881915;29;20461;-72
2022/01/06 03:40:06;;;;;;;19.02;3.83;;;;;;;2.46;86.11;101517.84;4881686;29;20039;-73
2022/01/06 03:42:33;;;;;;;23.08;4.25;;;;;;;2.40;86.35;101523.81;4881753;29;20446;-72
2022/01/06 03:44:59;;;;;;;22.27;4.53;;;;;;;2.42;86.01;101521.00;4864805;29;20499;-73
2022/01/06 03:47:25;;;;;;;26.05;4.25;;;;;;;2.42;86.51;101526.34;4881132;29;20109;-72
2022/01/06 03:49:50;;;;;;;22.75;4.20;;;;;;;2.42;86.65;101527.16;4874160;29;20037;-69
2022/01/06 03:52:15;;;;;;;20.38;4.07;;;;;;;2.39;86.27;101521.31;4846342;29;20144;-72
2022/01/06 03:54:40;;;;;;;21.45;4.00;;;;;;;2.42;86.19;101529.00;4862525;29;20590;-72
2022/01/06 03:57:06;;;;;;;23.15;3.90;;;;;;;2.41;86.04;101530.00;4862807;29;20076;-72
2022/01/06 03:59:31;;;;;;;19.55;3.95;;;;;;;2.42;86.19;101524.50;4861568;29;20033;-72
2022/01/06 04:01:57;;;;;;;25.38;3.80;;;;;;;2.43;86.64;101528.00;4872425;29;20033;-72
2022/01/06 04:04:22;;;;;;;21.67;3.85;;;;;;;2.43;86.05;101526.19;4881010;29;20048;-72
2022/01/06 04:06:47;;;;;;;18.00;4.05;;;;;;;2.46;86.28;101517.00;4864408;29;20044;-71
2022/01/06 04:09:13;;;;;;;19.77;3.75;;;;;;;2.50;85.85;101526.38;4881310;29;20032;-72
2022/01/06 04:11:38;;;;;;;23.75;3.97;;;;;;;2.48;86.45;101521.19;4878741;29;20029;-72
2022/01/06 04:14:04;;;;;;;19.27;3.53;;;;;;;2.48;86.38;101520.38;4862400;29;20033;-72
2022/01/06 04:16:30;;;;;;;19.23;3.47;;;;;;;2.47;86.09;101527.53;4872457;29;20029;-72
2022/01/06 04:18:55;;;;;;;18.85;3.67;;;;;;;2.45;86.32;101523.34;4880404;29;20041;-72
2022/01/06 04:21:21;;;;;;;18.58;3.38;;;;;;;2.46;85.88;101531.22;4880866;29;20039;-72
2022/01/06 04:23:47;;;;;;;22.38;3.65;;;;;;;2.47;85.96;101537.38;4880698;29;20033;-72
2022/01/06 04:26:13;;;;;;;16.50;3.42;;;;;;;2.44;86.30;101545.72;4864303;29;20096;-72
2022/01/06 04:28:39;;;;;;;26.23;3.80;;;;;;;2.46;86.01;101551.72;4880957;29;20036;-72
2022/01/06 04:31:04;;;;;;;22.75;3.67;;;;;;;2.43;86.03;101550.22;4880734;29;20120;-72
2022/01/06 04:33:29;;;;;;;20.90;3.67;;;;;;;2.43;86.21;101547.56;4880446;29;20128;-71
2022/01/06 04:35:55;;;;;;;20.60;3.22;;;;;;;2.43;85.83;101549.38;4879364;29;20398;-72
2022/01/06 04:38:21;;;;;;;20.25;3.90;;;;;;;2.41;85.72;101543.34;4880374;29;20044;-72
2022/01/06 04:40:47;;;;;;;22.90;4.53;;;;;;;2.41;86.34;101538.84;4886784;29;20028;-72
2022/01/06 04:43:12;;;;;;;19.65;3.60;;;;;;;2.40;86.00;101547.88;4899366;29;20044;-73
2022/01/06 04:45:38;;;;;;;20.23;3.25;;;;;;;2.36;86.00;101548.31;4894396;29;20493;-72
2022/01/06 04:48:05;;;;;;;19.65;3.83;;;;;;;2.36;86.00;101553.66;4879754;29;20738;-73
2022/01/06 04:50:31;;;;;;;20.73;3.90;;;;;;;2.29;86.34;101548.09;4880562;29;20546;-72
2022/01/06 04:52:58;;;;;;;17.20;3.35;;;;;;;2.34;86.48;101555.63;4879928;29;20112;-71
2022/01/06 04:55:24;;;;;;;13.35;3.33;;;;;;;2.26;86.21;101554.56;4880802;29;20036;-73
2022/01/06 04:57:50;;;;;;;19.98;3.42;;;;;;;2.31;86.18;101562.16;4865889;29;20044;-72
2022/01/06 05:00:15;;;;;;;20.23;3.63;;;;;;;2.27;86.26;101556.25;4845190;29;20066;-73
2022/01/06 05:02:41;;;;;;;16.50;3.08;;;;;;;2.28;86.55;101560.59;4874523;29;20041;-72
2022/01/06 05:05:06;;;;;;;18.80;3.88;;;;;;;2.30;86.25;101565.78;4879899;29;20041;-72
2022/01/06 05:07:32;;;;;;;17.67;3.20;;;;;;;2.25;85.98;101566.25;4880124;29;20469;-72
2022/01/06 05:09:57;;;;;;;15.02;3.50;;;;;;;2.23;85.94;101570.88;4880065;29;20078;-72
2022/01/06 05:12:23;;;;;;;17.70;3.53;;;;;;;2.27;86.53;101576.78;4882042;29;20099;-72
2022/01/06 05:14:48;;;;;;;21.92;3.67;;;;;;;2.24;85.91;101575.25;4890069;29;20028;-72
2022/01/06 05:17:13;;;;;;;21.77;3.63;;;;;;;2.22;85.96;101582.59;4879180;29;20036;-72
2022/01/06 05:19:39;;;;;;;20.20;3.50;;;;;;;2.25;85.99;101578.75;4869275;29;20045;-72
2022/01/06 05:22:04;;;;;;;20.85;3.50;;;;;;;2.22;86.67;101584.41;4879400;29;20072;-72
2022/01/06 05:24:30;;;;;;;18.73;3.40;;;;;;;2.21;86.11;101586.25;4879676;29;20397;-72
2022/01/06 05:26:56;;;;;;;10.15;3.03;;;;;;;2.18;85.73;101583.03;4879669;29;20075;-72
2022/01/06 05:29:23;;;;;;;17.40;3.10;;;;;;;2.09;86.29;101585.63;4877734;29;20028;-72
2022/01/06 05:31:48;;;;;;;15.10;3.60;;;;;;;2.10;86.17;101591.81;4879411;29;20041;-72
2022/01/06 05:34:14;;;;;;;15.15;3.10;;;;;;;2.08;85.97;101591.97;4875341;29;20044;-71
2022/01/06 05:36:39;;;;;;;15.48;3.45;;;;;;;2.06;85.75;101596.59;4898027;29;20103;-73
2022/01/06 05:39:05;;;;;;;17.75;3.70;;;;;;;2.05;86.00;101607.44;4898356;29;20088;-72
2022/01/06 05:41:31;;;;;;;18.17;3.72;;;;;;;2.00;85.48;101605.22;4866436;29;20363;-72
2022/01/06 05:43:56;;;;;;;13.70;3.53;;;;;;;1.97;85.61;101607.34;4866798;29;20036;-71
2022/01/06 05:46:22;;;;;;;14.00;3.30;;;;;;;1.93;85.83;101618.31;4879550;29;20040;-76
2022/01/06 05:48:47;;;;;;;13.52;3.25;;;;;;;1.89;85.21;101611.59;4862976;29;20551;-78
2022/01/06 05:51:13;;;;;;;11.60;3.35;;;;;;;1.85;85.24;101607.53;4858331;29;20051;-72
2022/01/06 05:53:38;;;;;;;18.70;3.83;;;;;;;1.80;85.31;101608.97;4878596;29;20131;-72
2022/01/06 05:56:04;;;;;;;15.35;3.60;;;;;;;1.76;85.64;101619.94;4878722;29;20039;-73
2022/01/06 05:58:30;;;;;;;19.40;4.72;;;;;;;1.72;85.94;101621.25;4879140;29;20032;-72
2022/01/06 06:00:55;;;;;;;16.92;3.72;;;;;;;1.72;85.86;101623.91;4861596;29;20409;-72
2022/01/06 06:03:21;;;;;;;15.40;3.90;;;;;;;1.71;85.57;101621.41;4861582;29;20500;-72
2022/01/06 06:05:46;;;;;;;14.90;4.22;;;;;;;1.73;85.70;101628.25;4860567;29;20033;-72
2022/01/06 06:08:12;;;;;;;13.20;4.53;;;;;;;1.71;85.77;101627.56;4860669;29;20044;-72
2022/01/06 06:10:37;;;;;;;15.13;4.43;;;;;;;1.70;85.80;101635.72;4860697;29;20040;-73
2022/01/06 06:13:03;;;;;;;20.65;4.60;;;;;;;1.68;86.17;101635.03;4859144;29;20048;-73
2022/01/06 06:15:34;;;;;;;19.73;4.05;;;;;;;1.63;85.87;101632.81;4868277;29;20084;-72
2022/01/06 06:18:04;;;;;;;17.05;3.63;;;;;;;1.63;86.29;101642.63;4878840;29;20038;-72
2022/01/06 06:20:29;;;;;;;19.92;3.45;;;;;;;1.64;85.86;101650.47;4878916;29;20076;-72
2022/01/06 06:22:55;;;;;;;19.52;3.00;;;;;;;1.64;85.47;101642.47;4878865;29;20061;-72
2022/01/06 06:25:20;;;;;;;14.82;3.22;;;;;;;1.66;85.64;101650.31;4878141;29;20111;-72
2022/01/06 06:27:45;;;;;;;22.20;3.40;;;;;;;1.68;85.37;101643.03;4860980;29;20036;-72
2022/01/06 06:30:11;;;;;;;18.95;4.00;;;;;;;1.69;86.06;101647.38;4865483;29;20097;-73
2022/01/06 06:32:37;;;;;;;21.17;3.38;;;;;;;1.67;85.68;101650.19;4879053;29;20044;-72
2022/01/06 06:35:04;;;;;;;14.52;4.25;;;;;;;1.63;85.38;101648.81;4878758;29;20029;-73
2022/01/06 06:37:29;;;;;;;17.45;3.80;;;;;;;1.66;86.04;101659.19;4863477;29;20218;-72
2022/01/06 06:39:56;;;;;;;17.35;4.18;;;;;;;1.66;85.86;101655.66;4859711;29;20036;-73
2022/01/06 06:42:21;;;;;;;17.20;3.83;;;;;;;1.67;85.90;101650.19;4860668;29;20037;-72
2022/01/06 06:44:47;;;;;;;13.80;3.13;;;;;;;1.64;85.33;101649.66;4846650;29;20037;-72
2022/01/06 06:47:12;;;;;;;15.90;3.47;;;;;;;1.64;85.35;101658.47;4877676;29;20037;-71
2022/01/06 06:49:37;;;;;;;17.60;3.83;;;;;;;1.62;85.65;101659.63;4861039;29;20092;-72
2022/01/06 06:52:03;;;;;;;24.42;3.85;;;;;;;1.61;85.28;101661.44;4859900;29;20045;-73
2022/01/06 06:54:29;;;;;;;15.27;3.70;;;;;;;1.60;85.96;101670.41;4860096;29;20037;-73
2022/01/06 06:56:54;;;;;;;21.20;4.20;;;;;;;1.58;86.26;101667.91;4860322;29;20029;-73
2022/01/06 06:59:19;;;;;;;14.50;3.63;;;;;;;1.58;86.04;101675.91;4862423;29;20048;-73
2022/01/06 07:01:44;;;;;;;15.50;3.75;;;;;;;1.58;86.01;101683.06;4876895;29;20517;-73
2022/01/06 07:04:10;;;;;;;17.02;3.97;;;;;;;1.59;86.41;101674.09;4862703;29;20040;-73
2022/01/06 07:06:35;;;;;;;15.70;3.42;;;;;;;1.59;86.08;101682.09;4882484;29;20037;-73
2022/01/06 07:09:00;;;;;;;14.10;3.47;;;;;;;1.56;85.53;101685.88;4882178;29;20029;-73
2022/01/06 07:11:25;;;;;;;15.00;3.47;;;;;;;1.61;85.53;101684.63;4880098;29;20037;-72
2022/01/06 07:13:51;;;;;;;18.65;3.65;;;;;;;1.57;85.68;101689.38;4882024;29;20033;-73
2022/01/06 07:16:16;;;;;;;18.90;3.75;;;;;;;1.60;85.86;101697.09;4865568;29;20473;-73
2022/01/06 07:18:41;;;;;;;16.95;3.78;;;;;;;1.56;85.34;101693.88;4865257;29;20033;-73
2022/01/06 07:21:07;;;;;;;18.42;3.55;;;;;;;1.56;85.78;101701.06;4880797;29;20033;-79
2022/01/06 07:23:32;;;;;;;20.80;3.67;;;;;;;1.52;85.55;101710.34;4881715;29;20041;-74
2022/01/06 07:25:57;;;;;;;14.05;3.47;;;;;;;1.53;85.70;101712.84;4882178;29;20120;-70
2022/01/06 07:28:22;;;;;;;17.55;4.22;;;;;;;1.55;86.03;101716.22;4881982;29;20374;-75
2022/01/06 07:30:48;;;;;;;16.25;3.88;;;;;;;1.56;86.14;101717.91;4882149;29;20040;-69
2022/01/06 07:33:13;;;;;;;19.13;4.03;;;;;;;1.56;86.54;101717.91;4871658;29;20109;-70
2022/01/06 07:35:38;;;;;;;14.05;3.85;;;;;;;1.55;85.61;101723.38;4863717;29;20044;-70
2022/01/06 07:38:04;;;;;;;23.35;4.30;;;;;;;1.56;86.26;101717.91;4863550;29;20386;-71
2022/01/06 07:40:29;;;;;;;14.88;3.55;;;;;;;1.57;85.85;101719.59;4877165;29;20080;-75
2022/01/06 07:42:54;;;;;;;15.98;3.60;;;;;;;1.59;85.97;101724.78;4864905;29;20419;-77
2022/01/06 07:45:20;;;;;;;21.10;4.10;;;;;;;1.60;86.22;101718.44;4864939;29;20037;-71
2022/01/06 07:48:03;;;;;;;16.50;3.63;;;;;;;1.63;85.61;101730.66;4881446;29;20473;-70
2022/01/06 07:50:33;;;;;;;15.75;3.38;;;;;;;1.62;85.51;101737.00;4881722;29;20055;-70
2022/01/06 07:52:59;;;;;;;14.40;3.88;;;;;;;1.53;85.31;101722.69;4880834;29;20061;-71
2022/01/06 07:55:26;;;;;;;20.90;5.25;;;;;;;1.50;85.39;101728.31;4881772;29;20064;-77
2022/01/06 07:57:52;;;;;;;15.52;4.82;;;;;;;1.45;86.00;101728.75;4881777;29;20430;-71
2022/01/06 08:00:18;;;;;;;16.40;3.72;;;;;;;1.44;85.99;101728.91;4881330;29;20033;-75
2022/01/06 08:02:44;;;;;;;19.67;4.38;;;;;;;1.41;86.49;101730.84;4878089;29;20085;-71
2022/01/06 08:05:12;;;;;;;19.08;3.67;;;;;;;1.46;85.99;101729.59;4881286;29;20116;-74
2022/01/06 08:07:38;;;;;;;15.07;3.85;;;;;;;1.48;85.88;101736.47;4881489;29;20088;-75
2022/01/06 08:10:04;;;;;;;15.02;4.20;;;;;;;1.50;86.23;101731.81;4881135;29;20458;-70
2022/01/06 08:12:29;;;;;;;14.20;4.18;;;;;;;1.49;86.66;101731.97;4881237;29;20167;-72
2022/01/06 08:14:54;;;;;;;18.67;4.30;;;;;;;1.47;86.76;101744.59;4863219;29;20056;-72
2022/01/06 08:17:20;;;;;;;18.35;4.93;;;;;;;1.52;86.47;101745.00;4844919;29;20042;-72
2022/01/06 08:19:47;;;;;;;17.52;4.60;;;;;;;1.52;86.16;101743.19;4862550;29;20458;-73
2022/01/06 08:22:12;;;;;;;16.40;4.90;;;;;;;1.48;86.55;101736.47;4861154;29;20037;-73
2022/01/06 08:24:37;;;;;;;15.20;4.10;;;;;;;1.50;87.21;101739.81;4862845;29;20116;-73
2022/01/06 08:27:08;;;;;;;14.77;4.88;;;;;;;1.55;86.25;101744.72;4862435;29;20029;-72
2022/01/06 08:29:33;;;;;;;21.48;4.75;;;;;;;1.57;87.18;101743.59;4845853;29;20450;-72
2022/01/06 08:31:59;;;;;;;23.88;5.65;;;;;;;1.58;86.74;101744.44;4861887;29;20112;-70
2022/01/06 08:34:24;;;;;;;20.83;6.63;;;;;;;1.63;87.41;101754.66;4845715;29;20065;-73
2022/01/06 08:36:52;;;;;;;18.17;5.80;;;;;;;1.61;87.07;101752.16;4880018;29;20037;-74
2022/01/06 08:39:18;;;;;;;20.80;6.72;;;;;;;1.61;87.33;101741.47;4880617;29;20035;-75
2022/01/06 08:41:43;;;;;;;17.95;5.90;;;;;;;1.67;87.22;101745.41;4880874;29;20112;-75
2022/01/06 08:44:08;;;;;;;21.02;6.07;;;;;;;1.66;87.52;101743.72;4880475;29;20040;-71
2022/01/06 08:46:33;;;;;;;18.58;5.28;;;;;;;1.66;87.26;101744.56;4880739;29;20043;-71
2022/01/06 08:48:59;;;;;;;26.15;5.78;;;;;;;1.73;87.06;101748.31;4880375;29;20041;-70
2022/01/06 08:51:24;;;;;;;22.08;5.72;;;;;;;1.78;86.87;101755.88;4880131;29;20064;-70
2022/01/06 08:53:49;;;;;;;21.50;6.05;;;;;;;1.81;86.81;101766.28;4880602;29;20133;-70
2022/01/06 08:56:14;;;;;;;19.27;5.50;;;;;;;1.84;87.42;101760.69;4880060;29;20033;-71
2022/01/06 08:58:40;;;;;;;24.67;6.45;;;;;;;1.81;86.94;101766.28;4864164;29;20476;-70
2022/01/06 09:01:05;;;;;;;27.27;6.80;;;;;;;1.85;87.56;101766.84;4842674;29;20053;-71
2022/01/06 09:03:30;;;;;;;27.67;7.10;;;;;;;1.84;87.51;101762.47;4861832;29;20108;-70
2022/01/06 09:05:55;;;;;;;21.52;7.22;;;;;;;1.85;87.96;101766.84;4861785;29;20033;-70
2022/01/06 09:08:21;;;;;;;27.15;7.38;;;;;;;1.89;88.39;101770.91;4861367;29;20518;-74
2022/01/06 09:10:46;;;;;;;20.52;6.80;;;;;;;1.89;87.45;101765.56;4861739;29;20120;-71
2022/01/06 09:13:11;;;;;;;17.10;6.95;;;;;;;1.93;88.22;101773.16;4861433;29;20038;-71
2022/01/06 09:15:37;;;;;;;21.30;7.72;;;;;;;1.94;88.12;101769.47;4861532;29;20036;-70
2022/01/06 09:18:02;;;;;;;25.63;7.57;;;;;;;1.95;88.52;101776.50;4861292;29;20037;-70
2022/01/06 09:20:29;;;;;;;27.15;7.70;;;;;;;1.99;88.28;101781.53;4862549;29;20037;-70
2022/01/06 09:22:54;;;;;;;28.08;7.60;;;;;;;2.01;88.09;101780.44;4861565;29;20058;-70
2022/01/06 09:25:19;;;;;;;26.33;7.93;;;;;;;2.03;88.59;101786.44;4861000;29;20044;-70
2022/01/06 09:27:45;;;;;;;27.77;8.10;;;;;;;2.07;88.36;101787.84;4861336;29;20029;-71
2022/01/06 09:30:11;;;;;;;21.52;7.47;;;;;;;2.13;88.91;101789.09;4861091;29;20493;-72
2022/01/06 09:32:37;;;;;;;21.45;7.70;;;;;;;2.16;88.64;101786.13;4861211;29;20041;-71
2022/01/06 09:35:03;;;;;;;28.75;7.80;;;;;;;2.20;88.52;101790.16;4860908;29;20434;-70
2022/01/06 09:37:29;;;;;;;25.67;8.13;;;;;;;2.26;88.68;101800.25;4860958;29;20036;-71
2022/01/06 09:39:54;;;;;;;23.38;8.00;;;;;;;2.34;89.06;101796.03;4860827;29;20056;-70
2022/01/06 09:42:20;;;;;;;24.63;7.28;;;;;;;2.38;88.65;101794.75;4868286;29;20041;-76
2022/01/06 09:44:49;;;;;;;21.58;7.35;;;;;;;2.43;88.72;101797.81;4863405;29;20056;-82
2022/01/06 09:47:16;;;;;;;30.55;7.80;;;;;;;2.50;88.50;101806.91;4879523;29;20052;-72
2022/01/06 09:49:44;;;;;;;24.05;7.60;;;;;;;2.55;88.23;101799.31;4879279;29;20068;-73
2022/01/06 09:52:10;;;;;;;20.83;6.68;;;;;;;2.60;88.93;101797.03;4879201;29;20053;-72
2022/01/06 09:54:37;;;;;;;24.23;6.65;;;;;;;2.63;88.38;101802.06;4879389;29;20086;-71
2022/01/06 09:57:04;;;;;;;22.17;7.32;;;;;;;2.68;88.34;101809.63;4878040;29;20096;-70
2022/01/06 09:59:30;;;;;;;27.98;7.05;;;;;;;2.74;88.50;101808.22;4879115;29;20039;-71
2022/01/06 10:01:55;;;;;;;28.33;7.10;;;;;;;2.79;88.95;101803.25;4876869;29;20033;-72
2022/01/06 10:04:30;;;;;;;18.70;6.22;;;;;;;2.83;88.54;101802.78;4862257;29;20037;-72
2022/01/06 10:07:07;;;;;;;21.85;6.78;;;;;;;2.93;88.84;101810.75;4879298;29;20165;-72
2022/01/06 10:09:34;;;;;;;23.48;7.10;;;;;;;2.95;88.81;101803.41;4879145;29;20029;-72
2022/01/06 10:12:03;;;;;;;22.55;6.88;;;;;;;3.00;88.72;101809.19;4878775;29;20032;-70
2022/01/06 10:14:41;;;;;;;19.10;6.57;;;;;;;3.08;88.48;101813.75;4879003;29;20480;-71
2022/01/06 10:17:07;;;;;;;18.98;6.03;;;;;;;3.11;87.98;101807.25;4864509;29;20112;-71
2022/01/06 10:19:35;;;;;;;28.55;6.47;;;;;;;3.14;87.95;101804.25;4843851;29;20144;-70
2022/01/06 10:22:01;;;;;;;24.77;6.60;;;;;;;3.15;88.34;101796.09;4860788;29;20079;-69
2022/01/06 10:24:28;;;;;;;20.55;6.20;;;;;;;3.22;87.68;101804.34;4859978;29;20116;-71
2022/01/06 10:27:01;;;;;;;21.15;6.18;;;;;;;3.26;87.56;101805.75;4860121;29;20048;-70
2022/01/06 10:29:32;;;;;;;24.05;6.80;;;;;;;3.27;87.79;101803.91;4860024;29;20044;-70
2022/01/06 10:32:07;;;;;;;19.85;5.70;;;;;;;3.32;87.40;101802.44;4870167;29;20103;-71
2022/01/06 10:34:36;;;;;;;20.13;5.68;;;;;;;3.35;87.58;101799.47;4878633;29;20384;-70
2022/01/06 10:37:02;;;;;;;22.98;6.03;;;;;;;3.37;86.88;101797.47;4862267;29;20033;-70
2022/01/06 10:39:44;;;;;;;20.20;6.10;;;;;;;3.47;87.58;101799.22;4877923;29;20749;-70
2022/01/06 10:42:10;;;;;;;;;;;;;;;3.53;87.05;101799.44;4878507;29;20048;-72
2022/01/06 10:44:46;;;;;;;21.40;5.50;;;;;;;3.52;87.83;101802.28;4878844;29;19912;-70
2022/01/06 10:47:12;;;;;;;23.67;6.43;;;;;;;3.58;87.91;101804.34;4861603;29;20037;-71
2022/01/06 10:49:37;;;;;;;21.10;5.45;;;;;;;3.61;88.21;101806.69;4879025;29;20041;-70
2022/01/06 10:52:03;;;;;;;23.48;6.45;;;;;;;3.67;87.48;101795.38;4876786;29;20056;-70
2022/01/06 10:54:29;;;;;;;23.10;5.38;;;;;;;3.67;87.10;101790.00;4878640;29;20033;-70
2022/01/06 10:57:00;;;;;;;19.92;5.38;;;;;;;3.69;87.54;101793.38;4878444;29;20029;-70
2022/01/06 10:59:27;;;;;;;17.30;5.00;;;;;;;3.72;86.63;101797.56;4878383;29;20181;-71
2022/01/06 11:01:53;;;;;;;19.08;5.80;;;;;;;3.74;87.82;101790.22;4876430;29;20124;-71
2022/01/06 11:04:18;;;;;;;20.02;5.43;;;;;;;3.78;87.31;101788.91;4878422;29;20169;-71
2022/01/06 11:06:43;;;;;;;19.33;4.80;;;;;;;3.81;87.04;101790.44;4878655;29;20040;-71
2022/01/06 11:09:11;;;;;;;16.33;5.32;;;;;;;3.81;86.81;101782.41;4861400;29;20294;-70
2022/01/06 11:14:23;;;;;;;21.00;4.68;;;;;;;3.86;87.16;101778.25;4876570;29;20048;-70
2022/01/06 11:16:49;;;;;;;23.52;5.28;;;;;;;3.91;86.95;101775.13;4861502;29;20035;-70
2022/01/06 11:19:14;;;;;;;16.02;4.95;;;;;;;3.93;87.05;101775.78;4877042;29;20116;-70
2022/01/06 11:21:44;;;;;;;15.85;4.75;;;;;;;3.97;86.50;101785.19;4878209;29;20073;-70
2022/01/06 11:24:12;;;;;;;19.50;5.07;;;;;;;3.95;86.61;101770.28;4878221;29;20037;-70
2022/01/06 11:26:38;;;;;;;16.25;5.50;;;;;;;3.97;86.53;101776.31;4878441;29;20112;-70
2022/01/06 11:29:04;;;;;;;17.95;4.55;;;;;;;4.00;86.37;101784.88;4878539;29;20120;-70
2022/01/06 11:31:42;;;;;;;22.63;6.18;;;;;;;4.02;86.14;101780.19;4878311;29;20229;-70
2022/01/06 11:34:16;;;;;;;19.77;5.53;;;;;;;4.05;86.14;101777.19;4878623;29;20120;-70